Time;durP1;ratioP1;P1;durP2;ratioP2;P2;SDS_P1;SDS_P2;PMS_P1;PMS_P2;Temp;Humidity;BMP_temperature;BMP_pressure;BME280_temperature;BME280_humidity;BME280_pressure;Samples;Min_cycle;Max_cycle;Signal;HPM_P1;HPM_P2
2022/10/27 00:00:29;;;;;;;6.37;5.70;;;12.60;99.90;;;;;;6237767;23;20139;-66
2022/10/27 00:02:55;;;;;;;9.43;5.40;;;12.60;99.90;;;;;;6238383;23;20154;-67
2022/10/27 00:05:21;;;;;;;5.53;5.20;;;12.60;99.90;;;;;;6224861;23;20150;-66
2022/10/27 00:07:47;;;;;;;6.00;5.40;;;12.60;99.90;;;;;;6223761;23;20228;-66
2022/10/27 00:10:14;;;;;;;5.27;4.80;;;12.60;99.90;;;;;;6223662;23;20146;-67
2022/10/27 00:12:39;;;;;;;5.50;4.97;;;12.60;99.90;;;;;;6223047;23;20146;-66
2022/10/27 00:15:05;;;;;;;5.37;4.87;;;12.60;99.90;;;;;;6224122;23;20613;-67
2022/10/27 00:17:31;;;;;;;5.37;4.97;;;12.50;99.90;;;;;;6223729;23;20174;-67
2022/10/27 00:19:57;;;;;;;5.67;5.37;;;12.50;99.90;;;;;;6223423;23;20208;-67
2022/10/27 00:22:22;;;;;;;5.70;5.20;;;12.50;99.90;;;;;;6223469;23;20147;-67
2022/10/27 00:24:48;;;;;;;7.87;5.20;;;12.50;99.90;;;;;;6223900;23;20166;-66
2022/10/27 00:27:14;;;;;;;6.13;5.20;;;12.50;99.90;;;;;;6211914;23;20600;-65
2022/10/27 00:29:39;;;;;;;5.20;4.80;;;12.50;99.90;;;;;;6223289;23;20201;-66
2022/10/27 00:32:05;;;;;;;5.80;5.20;;;12.50;99.90;;;;;;6223363;23;20650;-66
2022/10/27 00:34:30;;;;;;;6.10;5.67;;;12.50;99.90;;;;;;6223717;23;20151;-66
2022/10/27 00:36:56;;;;;;;6.03;5.47;;;12.60;99.90;;;;;;6223744;23;20622;-67
2022/10/27 00:39:22;;;;;;;6.23;5.70;;;12.60;99.90;;;;;;6223092;23;20272;-66
2022/10/27 00:41:47;;;;;;;5.27;4.87;;;12.60;99.90;;;;;;6224001;23;20230;-66
2022/10/27 00:44:32;;;;;;;6.07;5.47;;;12.60;99.90;;;;;;6223575;23;20147;-66
2022/10/27 00:47:05;;;;;;;5.90;5.50;;;12.60;99.90;;;;;;6211731;23;20220;-66
2022/10/27 00:50:00;;;;;;;6.30;5.70;;;12.60;99.90;;;;;;6223033;23;20140;-66
2022/10/27 00:52:28;;;;;;;7.07;5.37;;;12.60;99.90;;;;;;6204284;23;20158;-67
2022/10/27 00:54:57;;;;;;;6.20;5.70;;;12.50;99.90;;;;;;6223483;23;20229;-67
2022/10/27 00:57:24;;;;;;;5.60;5.20;;;12.60;99.90;;;;;;6223393;23;20186;-66
2022/10/27 00:59:50;;;;;;;6.37;5.90;;;12.60;99.90;;;;;;6223454;23;20171;-67
2022/10/27 01:02:16;;;;;;;6.50;5.67;;;12.60;99.90;;;;;;6222843;23;20173;-67
2022/10/27 01:04:51;;;;;;;7.70;5.93;;;12.50;99.90;;;;;;6222271;23;20226;-66
2022/10/27 01:07:19;;;;;;;7.87;6.30;;;12.50;99.90;;;;;;6223205;23;20184;-67
2022/10/27 01:09:45;;;;;;;6.90;6.30;;;12.50;99.90;;;;;;6223544;23;20160;-66
2022/10/27 01:12:11;;;;;;;8.33;6.70;;;12.50;99.90;;;;;;6223186;23;20151;-67
2022/10/27 01:14:37;;;;;;;8.23;6.50;;;12.60;99.90;;;;;;6223543;23;20154;-66
2022/10/27 01:17:08;;;;;;;7.13;6.43;;;12.70;99.90;;;;;;6223031;23;20233;-67
2022/10/27 01:20:31;;;;;;;7.50;6.87;;;12.70;99.90;;;;;;6223414;23;20153;-66
2022/10/27 01:23:08;;;;;;;7.63;6.40;;;12.80;99.90;;;;;;6131355;23;20153;-67
2022/10/27 01:25:53;;;;;;;12.70;7.50;;;12.80;99.90;;;;;;6132714;23;20147;-66
2022/10/27 01:28:51;;;;;;;10.60;6.90;;;12.80;99.90;;;;;;6195029;23;20190;-67
2022/10/27 01:31:24;;;;;;;8.40;6.53;;;12.80;99.90;;;;;;6224750;23;20142;-67
2022/10/27 01:33:55;;;;;;;9.37;7.23;;;12.70;99.90;;;;;;6225329;23;20213;-67
2022/10/27 01:36:32;;;;;;;6.80;6.20;;;12.70;99.90;;;;;;6225279;23;20215;-67
2022/10/27 01:39:35;;;;;;;11.53;6.20;;;12.70;99.90;;;;;;6225366;23;20135;-66
2022/10/27 01:42:14;;;;;;;7.23;6.53;;;12.70;99.90;;;;;;6177575;23;20590;-66
2022/10/27 01:44:43;;;;;;;9.60;7.10;;;12.70;99.90;;;;;;6225209;23;20135;-67
2022/10/27 01:47:11;;;;;;;6.20;5.73;;;12.70;99.90;;;;;;6225185;23;20170;-67
2022/10/27 01:49:38;;;;;;;6.33;5.90;;;12.60;99.90;;;;;;6224788;23;20146;-66
2022/10/27 01:52:39;;;;;;;6.17;5.67;;;12.60;99.90;;;;;;6224988;23;20296;-66
2022/10/27 01:55:09;;;;;;;7.90;6.13;;;12.60;99.90;;;;;;6225117;23;20138;-66
2022/10/27 01:58:07;;;;;;;8.97;6.00;;;12.60;99.90;;;;;;6224349;23;20179;-66
2022/10/27 02:00:42;;;;;;;8.37;5.83;;;12.60;99.90;;;;;;6187428;23;20155;-66
2022/10/27 02:03:16;;;;;;;6.43;6.00;;;12.60;99.90;;;;;;6225018;23;20134;-67
2022/10/27 02:05:55;;;;;;;7.60;6.33;;;12.50;99.90;;;;;;6224962;23;20137;-66
2022/10/27 02:08:27;;;;;;;6.87;6.10;;;12.60;99.90;;;;;;6224897;23;20193;-67
2022/10/27 02:11:00;;;;;;;6.07;5.60;;;12.50;99.90;;;;;;6224588;23;20134;-66
2022/10/27 02:13:27;;;;;;;6.20;5.70;;;12.50;99.90;;;;;;6225103;23;20147;-67
2022/10/27 02:15:59;;;;;;;6.27;5.77;;;12.50;99.90;;;;;;6225080;23;20174;-66
2022/10/27 02:18:32;;;;;;;6.73;6.23;;;12.50;99.90;;;;;;6224933;23;20528;-67
2022/10/27 02:21:04;;;;;;;6.50;6.00;;;12.50;99.90;;;;;;6224409;23;20510;-67
2022/10/27 02:23:30;;;;;;;8.03;6.13;;;12.50;99.90;;;;;;6224673;23;20151;-67
2022/10/27 02:26:08;;;;;;;7.13;6.43;;;12.40;99.90;;;;;;6225004;23;20166;-66
2022/10/27 02:29:04;;;;;;;8.40;6.03;;;12.40;99.90;;;;;;6224589;23;20186;-66
2022/10/27 02:31:34;;;;;;;6.83;6.37;;;12.40;99.90;;;;;;6223798;23;20204;-67
2022/10/27 02:34:01;;;;;;;6.73;6.13;;;12.40;99.90;;;;;;6224981;23;20201;-66
2022/10/27 02:36:27;;;;;;;7.03;6.33;;;12.40;99.90;;;;;;6223886;23;20175;-66
2022/10/27 02:38:52;;;;;;;7.90;6.03;;;12.40;99.90;;;;;;6224781;23;20194;-66
2022/10/27 02:41:18;;;;;;;6.90;6.13;;;12.40;99.90;;;;;;6223932;23;20142;-66
2022/10/27 02:43:43;;;;;;;7.03;6.40;;;12.40;99.90;;;;;;6224435;23;20143;-66
2022/10/27 02:46:09;;;;;;;8.67;6.30;;;12.40;99.90;;;;;;6228828;23;20209;-66
2022/10/27 02:48:34;;;;;;;8.93;6.20;;;12.40;99.90;;;;;;6231800;23;20170;-66
2022/10/27 02:51:00;;;;;;;6.60;6.17;;;12.30;99.90;;;;;;6230595;23;20206;-66
2022/10/27 02:53:26;;;;;;;6.30;5.80;;;12.30;99.90;;;;;;6231109;23;20196;-66
2022/10/27 02:55:51;;;;;;;6.37;5.87;;;12.30;99.90;;;;;;6230777;23;20166;-66
2022/10/27 02:58:17;;;;;;;6.67;6.10;;;12.30;99.90;;;;;;6230826;23;20638;-66
2022/10/27 03:00:42;;;;;;;6.60;6.00;;;12.30;99.90;;;;;;6228764;23;20155;-66
2022/10/27 03:03:08;;;;;;;7.20;6.30;;;12.30;99.90;;;;;;6229330;23;20147;-66
2022/10/27 03:05:34;;;;;;;6.87;6.27;;;12.20;99.90;;;;;;6228280;23;20618;-67
2022/10/27 03:07:59;;;;;;;6.60;5.93;;;12.10;99.90;;;;;;6223994;23;20260;-66
2022/10/27 03:10:25;;;;;;;12.87;5.90;;;12.10;99.90;;;;;;6232046;23;20150;-67
2022/10/27 03:12:51;;;;;;;6.63;5.90;;;12.10;99.90;;;;;;6238576;23;20143;-67
2022/10/27 03:15:16;;;;;;;6.13;5.63;;;12.10;99.90;;;;;;6237060;23;20704;-66
2022/10/27 03:17:46;;;;;;;6.47;5.67;;;12.10;99.90;;;;;;6223676;23;20178;-66
2022/10/27 03:20:14;;;;;;;6.77;6.00;;;12.10;99.90;;;;;;6224816;23;20150;-66
2022/10/27 03:22:40;;;;;;;6.00;5.60;;;12.10;99.90;;;;;;6217743;23;20151;-66
2022/10/27 03:25:06;;;;;;;6.60;6.10;;;12.10;99.90;;;;;;6230943;23;20148;-66
2022/10/27 03:27:32;;;;;;;6.60;6.03;;;12.10;99.90;;;;;;6227909;22;20270;-66
2022/10/27 03:29:57;;;;;;;6.20;5.70;;;12.10;99.90;;;;;;6223873;23;20559;-67
2022/10/27 03:32:23;;;;;;;6.87;6.37;;;12.10;99.90;;;;;;6223227;23;20158;-66
2022/10/27 03:34:48;;;;;;;6.30;5.70;;;12.10;99.90;;;;;;6223475;23;20147;-66
2022/10/27 03:37:14;;;;;;;6.47;5.83;;;12.10;99.90;;;;;;6211888;23;20186;-67
2022/10/27 03:39:40;;;;;;;10.87;6.10;;;12.10;99.90;;;;;;6223630;23;20183;-66
2022/10/27 03:42:05;;;;;;;6.20;5.80;;;12.10;99.90;;;;;;6223899;23;20146;-66
2022/10/27 03:44:31;;;;;;;6.60;6.20;;;12.10;99.90;;;;;;6212217;23;20205;-67
2022/10/27 03:46:56;;;;;;;6.13;5.73;;;12.00;99.90;;;;;;6223553;23;20626;-67
2022/10/27 03:49:22;;;;;;;6.77;6.33;;;12.00;99.90;;;;;;6224192;23;20226;-67
2022/10/27 03:51:48;;;;;;;6.37;5.77;;;12.00;99.90;;;;;;6223418;23;20180;-67
2022/10/27 03:54:13;;;;;;;5.53;5.13;;;12.00;99.90;;;;;;6223886;23;20490;-67
2022/10/27 03:56:39;;;;;;;6.83;6.27;;;12.00;99.90;;;;;;6223338;23;20261;-67
2022/10/27 03:59:04;;;;;;;6.40;6.00;;;12.00;99.90;;;;;;6225860;23;20193;-67
2022/10/27 04:01:33;;;;;;;6.53;6.03;;;12.00;99.90;;;;;;6228181;23;20147;-67
2022/10/27 04:03:58;;;;;;;5.93;5.43;;;12.00;99.90;;;;;;6228894;23;20147;-67
2022/10/27 04:06:24;;;;;;;6.23;5.73;;;11.90;99.90;;;;;;6226659;23;20594;-67
2022/10/27 04:08:50;;;;;;;6.20;5.80;;;12.00;99.90;;;;;;6223903;23;20158;-67
2022/10/27 04:11:15;;;;;;;7.23;6.27;;;11.90;99.90;;;;;;6223322;23;20660;-67
2022/10/27 04:13:41;;;;;;;6.10;5.70;;;11.90;99.90;;;;;;6223672;23;20151;-67
2022/10/27 04:16:07;;;;;;;7.83;5.97;;;11.90;99.90;;;;;;6223321;23;20178;-67
2022/10/27 04:18:32;;;;;;;5.97;5.37;;;11.90;99.90;;;;;;6223631;23;20194;-67
2022/10/27 04:21:02;;;;;;;5.73;5.20;;;11.90;99.90;;;;;;6222942;23;20143;-68
2022/10/27 04:23:29;;;;;;;7.17;5.57;;;11.90;99.90;;;;;;6223637;23;20274;-67
2022/10/27 04:25:55;;;;;;;9.13;6.27;;;11.90;99.90;;;;;;6223749;23;20174;-67
2022/10/27 04:28:21;;;;;;;8.47;5.40;;;11.90;99.90;;;;;;6212020;23;20194;-67
2022/10/27 04:30:46;;;;;;;6.03;5.63;;;11.90;99.90;;;;;;6223248;23;20178;-66
2022/10/27 04:33:12;;;;;;;5.73;5.27;;;11.80;99.90;;;;;;6225485;23;20154;-67
2022/10/27 04:35:37;;;;;;;6.50;5.90;;;11.80;99.90;;;;;;6227924;23;20204;-67
2022/10/27 04:38:03;;;;;;;5.50;5.10;;;11.80;99.90;;;;;;6228822;23;20166;-67
2022/10/27 04:40:29;;;;;;;9.00;6.30;;;11.80;99.90;;;;;;6226382;23;20147;-67
2022/10/27 04:42:54;;;;;;;6.93;6.23;;;11.80;99.90;;;;;;6222902;23;20147;-67
2022/10/27 04:45:20;;;;;;;6.10;5.60;;;11.70;99.90;;;;;;6223710;23;20489;-67
2022/10/27 04:47:46;;;;;;;5.97;4.87;;;11.70;99.90;;;;;;6223258;23;20630;-67
2022/10/27 04:50:13;;;;;;;5.80;5.40;;;11.80;99.90;;;;;;6223284;23;20161;-67
2022/10/27 04:52:39;;;;;;;7.47;5.70;;;11.70;99.90;;;;;;6223388;23;20222;-67
2022/10/27 04:55:05;;;;;;;6.20;5.60;;;11.70;99.90;;;;;;6223757;23;20171;-67
2022/10/27 04:57:31;;;;;;;6.37;5.77;;;11.70;99.90;;;;;;6222972;23;20206;-68
2022/10/27 04:59:56;;;;;;;7.27;6.20;;;11.70;99.90;;;;;;6224728;23;20154;-67
2022/10/27 05:02:22;;;;;;;8.27;6.00;;;11.70;99.90;;;;;;6225105;23;20143;-67
2022/10/27 05:04:48;;;;;;;5.63;5.27;;;11.70;99.90;;;;;;6225420;23;20613;-67
2022/10/27 05:07:13;;;;;;;6.47;6.00;;;11.70;99.90;;;;;;6224978;23;20189;-67
2022/10/27 05:09:39;;;;;;;6.27;5.77;;;11.70;99.90;;;;;;6224913;23;20220;-67
2022/10/27 05:12:04;;;;;;;6.97;5.70;;;11.70;99.90;;;;;;6225528;23;20185;-67
2022/10/27 05:14:30;;;;;;;6.03;5.50;;;11.70;99.90;;;;;;6225228;23;20480;-67
2022/10/27 05:16:56;;;;;;;5.73;5.43;;;11.70;99.90;;;;;;6225344;23;20187;-67
2022/10/27 05:19:21;;;;;;;7.03;5.93;;;11.70;99.90;;;;;;6224645;23;20142;-67
2022/10/27 05:21:47;;;;;;;6.83;6.43;;;11.70;99.90;;;;;;6225046;23;20511;-67
2022/10/27 05:24:13;;;;;;;7.00;6.37;;;11.70;99.90;;;;;;6224425;23;20222;-67
2022/10/27 05:26:39;;;;;;;6.90;6.30;;;11.70;99.90;;;;;;6224763;23;20272;-67
2022/10/27 05:29:05;;;;;;;6.07;5.67;;;11.70;99.90;;;;;;6224579;23;20147;-67
2022/10/27 05:31:30;;;;;;;6.23;5.73;;;11.70;99.90;;;;;;6224996;23;20151;-67
2022/10/27 05:33:56;;;;;;;9.97;6.23;;;11.70;99.90;;;;;;6224842;23;20154;-67
2022/10/27 05:36:21;;;;;;;6.70;6.10;;;11.70;99.90;;;;;;6228347;23;20511;-67
2022/10/27 05:38:47;;;;;;;7.83;6.37;;;11.70;99.90;;;;;;6229350;23;20151;-67
2022/10/27 05:41:13;;;;;;;6.97;6.03;;;11.60;99.90;;;;;;6228396;23;20143;-67
2022/10/27 05:43:40;;;;;;;6.50;6.00;;;11.60;99.90;;;;;;6228894;23;20143;-67
2022/10/27 05:46:06;;;;;;;8.90;5.80;;;11.60;99.90;;;;;;6228793;23;20147;-67
2022/10/27 05:48:31;;;;;;;6.00;5.50;;;11.60;99.90;;;;;;6229332;23;20210;-67
2022/10/27 05:50:57;;;;;;;5.83;5.30;;;11.60;99.90;;;;;;6228418;23;20194;-67
2022/10/27 05:53:22;;;;;;;8.93;5.47;;;11.50;99.90;;;;;;6228403;23;20158;-67
2022/10/27 05:55:52;;;;;;;5.67;5.37;;;11.50;99.90;;;;;;6229363;23;20601;-67
2022/10/27 05:58:17;;;;;;;6.40;5.80;;;11.50;99.90;;;;;;6229162;23;20166;-67
2022/10/27 06:00:43;;;;;;;6.40;5.53;;;11.50;99.90;;;;;;6229316;23;20147;-67
2022/10/27 06:03:23;;;;;;;7.40;6.23;;;11.40;99.90;;;;;;6230175;23;20189;-67
2022/10/27 06:05:50;;;;;;;6.40;5.97;;;11.40;99.90;;;;;;6226948;23;20131;-67
2022/10/27 06:08:16;;;;;;;6.33;5.83;;;11.40;99.90;;;;;;6216031;23;20167;-68
2022/10/27 06:10:42;;;;;;;6.07;5.60;;;11.40;99.90;;;;;;6225920;23;20143;-68
2022/10/27 06:13:10;;;;;;;6.20;5.70;;;11.50;99.90;;;;;;6224785;23;20226;-67
2022/10/27 06:15:35;;;;;;;6.70;5.80;;;11.50;99.90;;;;;;6231123;23;20146;-68
2022/10/27 06:18:01;;;;;;;7.00;6.40;;;11.60;99.90;;;;;;6236501;23;20162;-68
2022/10/27 06:20:27;;;;;;;6.90;6.27;;;11.60;99.90;;;;;;6236517;23;20150;-67
2022/10/27 06:22:53;;;;;;;10.60;5.87;;;11.60;99.90;;;;;;6224560;23;20150;-67
2022/10/27 06:25:18;;;;;;;5.77;5.27;;;11.70;99.90;;;;;;6224924;23;20150;-67
2022/10/27 06:27:45;;;;;;;5.80;5.40;;;11.70;99.90;;;;;;6223657;23;20186;-67
2022/10/27 06:30:11;;;;;;;6.07;5.47;;;11.60;99.90;;;;;;6224235;23;20147;-67
2022/10/27 06:32:38;;;;;;;6.07;5.67;;;11.70;99.90;;;;;;6223918;23;20158;-67
2022/10/27 06:35:04;;;;;;;6.20;5.80;;;11.70;99.90;;;;;;6212825;23;20615;-68
2022/10/27 06:37:30;;;;;;;8.77;6.37;;;11.70;99.90;;;;;;6223849;23;20185;-67
2022/10/27 06:39:55;;;;;;;5.87;5.47;;;11.80;99.90;;;;;;6223671;23;20170;-67
2022/10/27 06:42:21;;;;;;;6.47;5.87;;;11.80;99.90;;;;;;6224981;23;20479;-67
2022/10/27 06:44:47;;;;;;;7.37;6.73;;;11.80;99.90;;;;;;6224285;23;20147;-69
2022/10/27 06:47:13;;;;;;;6.10;5.70;;;11.90;99.90;;;;;;6224085;23;20167;-69
2022/10/27 06:49:39;;;;;;;7.50;6.10;;;11.90;99.90;;;;;;6224071;23;20158;-68
2022/10/27 06:52:05;;;;;;;5.63;5.27;;;11.90;99.90;;;;;;6224468;23;20150;-67
2022/10/27 06:54:30;;;;;;;6.10;5.70;;;12.00;99.90;;;;;;6224212;23;20150;-68
2022/10/27 06:56:56;;;;;;;5.93;5.30;;;12.00;99.90;;;;;;6224121;23;20187;-67
2022/10/27 06:59:21;;;;;;;7.00;6.40;;;12.00;99.90;;;;;;6224044;23;20143;-68
2022/10/27 07:01:47;;;;;;;6.07;5.43;;;12.00;99.90;;;;;;6223818;23;20170;-67
2022/10/27 07:04:13;;;;;;;7.17;6.57;;;12.10;99.90;;;;;;6224191;23;20146;-67
2022/10/27 07:06:39;;;;;;;11.13;7.87;;;12.10;99.90;;;;;;6223660;23;20167;-68
2022/10/27 07:09:04;;;;;;;10.77;8.17;;;12.20;99.90;;;;;;6224122;23;20155;-67
2022/10/27 07:11:30;;;;;;;19.13;9.80;;;12.20;99.90;;;;;;6223712;23;20143;-68
2022/10/27 07:13:55;;;;;;;9.33;8.17;;;12.30;99.90;;;;;;6224560;23;20159;-68
2022/10/27 07:16:21;;;;;;;9.73;6.93;;;12.30;99.90;;;;;;6223578;23;20181;-68
2022/10/27 07:18:47;;;;;;;6.90;6.20;;;12.40;99.90;;;;;;6224079;23;20166;-67
2022/10/27 07:21:14;;;;;;;6.37;5.87;;;12.60;99.90;;;;;;6223288;23;20159;-67
2022/10/27 07:23:39;;;;;;;6.87;5.60;;;12.80;99.90;;;;;;6223774;23;20171;-68
2022/10/27 07:26:05;;;;;;;6.43;5.50;;;13.10;99.90;;;;;;6224084;23;20197;-68
2022/10/27 07:28:30;;;;;;;9.33;6.10;;;13.40;99.90;;;;;;6223753;23;20193;-68
2022/10/27 07:30:56;;;;;;;8.10;5.87;;;13.60;99.90;;;;;;6223463;23;20159;-67
2022/10/27 07:33:22;;;;;;;6.17;5.57;;;14.00;99.90;;;;;;6224021;23;20520;-67
2022/10/27 07:35:49;;;;;;;6.17;5.63;;;14.40;99.90;;;;;;6223564;23;20513;-67
2022/10/27 07:38:15;;;;;;;5.80;5.30;;;14.80;99.90;;;;;;6223838;23;20193;-67
2022/10/27 07:40:41;;;;;;;6.23;5.63;;;15.30;99.90;;;;;;6222932;23;20579;-67
2022/10/27 07:43:06;;;;;;;4.83;4.53;;;15.60;99.90;;;;;;6225032;23;20486;-67
2022/10/27 07:45:32;;;;;;;6.57;5.03;;;15.90;99.90;;;;;;6226812;23;20548;-67
2022/10/27 07:47:58;;;;;;;5.37;5.07;;;16.20;99.90;;;;;;6226833;23;20246;-67
2022/10/27 07:50:31;;;;;;;5.13;4.63;;;16.50;99.90;;;;;;6227673;23;20147;-66
2022/10/27 07:52:57;;;;;;;5.93;5.43;;;16.80;99.90;;;;;;6227927;23;20355;-67
2022/10/27 07:55:25;;;;;;;4.73;4.43;;;17.00;99.90;;;;;;6227017;23;20150;-67
2022/10/27 07:58:11;;;;;;;5.03;4.70;;;17.20;99.90;;;;;;6227795;23;20186;-67
2022/10/27 08:00:42;;;;;;;5.13;4.73;;;17.30;99.90;;;;;;6227497;23;20131;-67
2022/10/27 08:03:14;;;;;;;4.50;4.20;;;17.60;99.90;;;;;;6227727;23;20139;-67
2022/10/27 08:05:40;;;;;;;4.70;4.33;;;17.70;99.90;;;;;;6227806;23;20163;-67
2022/10/27 08:08:06;;;;;;;4.17;3.97;;;17.80;99.90;;;;;;6226438;23;20634;-67
2022/10/27 08:10:35;;;;;;;5.37;5.00;;;18.10;99.90;;;;;;6226951;23;20582;-67
2022/10/27 08:13:00;;;;;;;4.20;3.90;;;18.40;99.90;;;;;;6227371;23;20273;-67
2022/10/27 08:15:27;;;;;;;4.20;3.90;;;18.50;99.90;;;;;;6224371;23;20626;-67
2022/10/27 08:17:54;;;;;;;8.70;4.83;;;18.80;99.90;;;;;;6222703;23;20213;-67
2022/10/27 08:20:20;;;;;;;5.70;3.57;;;18.90;99.90;;;;;;6222829;23;20147;-68
2022/10/27 08:22:52;;;;;;;4.20;3.90;;;19.10;99.90;;;;;;6223751;23;20147;-68
2022/10/27 08:25:18;;;;;;;4.40;4.00;;;19.20;99.90;;;;;;6223982;23;20139;-67
2022/10/27 08:27:43;;;;;;;4.63;4.23;;;19.40;99.90;;;;;;6223403;23;20240;-68
2022/10/27 08:30:09;;;;;;;4.83;3.53;;;19.50;99.90;;;;;;6223320;23;20257;-68
2022/10/27 08:32:35;;;;;;;3.67;3.47;;;19.60;99.90;;;;;;6223625;23;20273;-67
2022/10/27 08:35:01;;;;;;;3.30;3.10;;;19.80;99.90;;;;;;6213637;23;20624;-68
2022/10/27 08:37:26;;;;;;;3.90;3.60;;;19.90;99.90;;;;;;6225589;23;20588;-67
2022/10/27 08:39:52;;;;;;;4.50;4.13;;;20.10;99.90;;;;;;6225359;23;20233;-68
2022/10/27 08:42:54;;;;;;;9.63;3.83;;;20.20;99.90;;;;;;6225787;23;20147;-68
2022/10/27 08:45:26;;;;;;;3.43;3.23;;;20.50;99.90;;;;;;6225739;23;20668;-66
2022/10/27 08:47:56;;;;;;;3.60;3.30;;;20.50;99.90;;;;;;6225553;23;20232;-67
2022/10/27 08:50:26;;;;;;;7.88;3.30;;;20.70;99.90;;;;;;6225364;23;20142;-68
2022/10/27 08:53:10;;;;;;;3.53;3.23;;;20.80;99.90;;;;;;6225729;23;20714;-68
2022/10/27 08:55:50;;;;;;;4.90;3.28;;;20.80;99.90;;;;;;6225637;23;20147;-67
2022/10/27 08:58:32;;;;;;;3.27;3.07;;;20.80;99.90;;;;;;6225679;23;20177;-66
2022/10/27 09:01:18;;;;;;;5.10;3.83;;;20.90;99.90;;;;;;6225438;23;20468;-67
2022/10/27 09:03:44;;;;;;;3.85;3.60;;;21.00;99.90;;;;;;6225452;23;20139;-68
2022/10/27 09:06:39;;;;;;;3.53;3.00;;;21.10;99.90;;;;;;6225599;23;20153;-68
2022/10/27 09:09:25;;;;;;;3.60;3.33;;;21.20;99.90;;;;;;6224950;23;20139;-66
2022/10/27 09:12:15;;;;;;;3.92;2.97;;;21.30;99.90;;;;;;6225404;23;20131;-68
2022/10/27 09:14:52;;;;;;;3.72;3.42;;;21.20;99.90;;;;;;6225290;23;20663;-68
2022/10/27 09:17:24;;;;;;;3.53;3.33;;;21.10;99.90;;;;;;6225366;23;20178;-68
2022/10/27 09:20:10;;;;;;;3.50;3.20;;;21.10;99.90;;;;;;6224688;23;20199;-68
2022/10/27 09:22:40;;;;;;;3.33;3.13;;;21.00;99.90;;;;;;6224920;23;20479;-67
2022/10/27 09:25:19;;;;;;;4.83;4.30;;;20.90;99.90;;;;;;6226257;23;20170;-68
2022/10/27 09:27:49;;;;;;;4.17;3.87;;;20.70;99.90;;;;;;6218442;23;20260;-66
2022/10/27 09:30:15;;;;;;;4.50;3.43;;;20.60;99.90;;;;;;6255627;23;20135;-65
2022/10/27 09:32:47;;;;;;;3.63;3.38;;;20.50;99.90;;;;;;6255728;23;20142;-65
2022/10/27 09:35:15;;;;;;;3.58;3.28;;;20.80;99.90;;;;;;6255819;23;20138;-65
2022/10/27 09:37:41;;;;;;;3.25;3.15;;;21.10;99.90;;;;;;6245190;22;20197;-65
2022/10/27 09:40:20;;;;;;;3.57;3.33;;;21.30;99.90;;;;;;6255179;23;20170;-66
2022/10/27 09:42:53;;;;;;;3.55;3.25;;;21.60;99.90;;;;;;6255552;23;20617;-65
2022/10/27 09:45:22;;;;;;;3.92;3.13;;;21.80;99.90;;;;;;6255534;23;20469;-65
2022/10/27 09:47:52;;;;;;;3.22;2.92;;;22.00;99.90;;;;;;6254913;22;20518;-66
2022/10/27 09:50:35;;;;;;;3.33;3.13;;;22.60;99.90;;;;;;6217706;23;20201;-65
2022/10/27 09:53:02;;;;;;;3.63;3.08;;;22.90;99.90;;;;;;6255424;23;20130;-65
2022/10/27 09:55:49;;;;;;;4.10;3.17;;;22.90;99.90;;;;;;6245105;23;20211;-65
2022/10/27 09:58:15;;;;;;;4.25;3.67;;;23.00;99.90;;;;;;6227288;23;20176;-65
2022/10/27 10:00:41;;;;;;;4.15;3.40;;;23.10;99.90;;;;;;6255059;23;20154;-66
2022/10/27 10:03:19;;;;;;;3.30;3.10;;;23.20;99.90;;;;;;6254175;23;20146;-65
2022/10/27 10:05:46;;;;;;;3.83;3.60;;;23.20;99.90;;;;;;6253222;23;20157;-65
2022/10/27 10:08:18;;;;;;;3.53;3.22;;;23.40;99.90;;;;;;6255192;22;20162;-65
2022/10/27 10:11:18;;;;;;;3.97;3.67;;;23.40;99.90;;;;;;6254404;23;20135;-65
2022/10/27 10:13:59;;;;;;;3.90;3.05;;;23.30;99.90;;;;;;6191149;23;20181;-66
2022/10/27 10:16:27;;;;;;;3.60;3.40;;;23.20;99.90;;;;;;6254703;23;20242;-66
2022/10/27 10:19:22;;;;;;;4.45;3.40;;;23.20;99.90;;;;;;6254504;22;20162;-65
2022/10/27 10:22:00;;;;;;;3.20;3.00;;;23.20;99.90;;;;;;6241229;23;20229;-66
2022/10/27 10:24:35;;;;;;;3.47;3.13;;;23.20;99.90;;;;;;6254663;23;20150;-65
2022/10/27 10:27:04;;;;;;;3.58;3.00;;;23.20;99.90;;;;;;6253882;22;20161;-65
2022/10/27 10:29:48;;;;;;;5.00;3.28;;;23.00;99.90;;;;;;6224022;23;20143;-65
2022/10/27 10:32:17;;;;;;;4.72;3.40;;;22.80;99.90;;;;;;6221285;23;20162;-65
2022/10/27 10:34:43;;;;;;;3.53;3.22;;;22.60;99.90;;;;;;6212572;23;20151;-66
2022/10/27 10:37:29;;;;;;;2.65;2.55;;;22.50;99.90;;;;;;6222910;23;20189;-66
2022/10/27 10:40:07;;;;;;;7.43;3.25;;;22.60;99.90;;;;;;6223855;23;20149;-66
2022/10/27 10:42:32;;;;;;;3.47;3.28;;;22.70;99.90;;;;;;6224143;23;20142;-66
2022/10/27 10:45:26;;;;;;;3.88;3.10;;;22.70;99.90;;;;;;6224196;23;20147;-66
2022/10/27 10:48:02;;;;;;;3.75;3.45;;;22.90;99.90;;;;;;6210852;23;20179;-66
2022/10/27 10:50:28;;;;;;;3.28;3.05;;;22.90;99.90;;;;;;6223557;23;20464;-66
2022/10/27 10:52:57;;;;;;;3.30;3.10;;;23.00;99.90;;;;;;6222699;23;20181;-66
2022/10/27 10:55:37;;;;;;;3.25;3.05;;;23.10;99.90;;;;;;6224023;23;20201;-65
2022/10/27 10:58:02;;;;;;;3.38;3.08;;;23.30;99.90;;;;;;6223635;23;20205;-66
2022/10/27 11:00:28;;;;;;;3.20;3.00;;;23.60;99.90;;;;;;6223714;23;20682;-65
2022/10/27 11:02:57;;;;;;;5.82;2.80;;;23.90;99.90;;;;;;6224165;23;20147;-65
2022/10/27 11:05:31;;;;;;;3.28;3.08;;;24.20;99.90;;;;;;6212320;23;20583;-66
2022/10/27 11:07:58;;;;;;;7.25;2.58;;;24.30;99.90;;;;;;6224229;23;20176;-66
2022/10/27 11:10:29;;;;;;;3.92;3.55;;;24.40;99.90;;;;;;6222222;23;20178;-65
2022/10/27 11:13:00;;;;;;;3.22;3.03;;;24.50;99.90;;;;;;6224517;23;20132;-65
2022/10/27 11:15:41;;;;;;;4.03;3.63;;;24.40;99.90;;;;;;6224077;23;20162;-65
2022/10/27 11:18:23;;;;;;;2.90;2.70;;;24.10;99.90;;;;;;6224251;23;20167;-65
2022/10/27 11:20:54;;;;;;;3.00;2.90;;;24.10;99.90;;;;;;6225070;23;20138;-65
2022/10/27 11:23:27;;;;;;;4.22;3.30;;;23.90;99.90;;;;;;6224438;23;20185;-65
2022/10/27 11:25:55;;;;;;;3.42;3.22;;;23.80;99.90;;;;;;6224599;23;20577;-66
2022/10/27 11:28:28;;;;;;;4.40;3.10;;;23.80;99.90;;;;;;6224107;23;20174;-65
2022/10/27 11:31:08;;;;;;;3.17;3.00;;;23.90;99.90;;;;;;6212479;23;20146;-65
2022/10/27 11:34:17;;;;;;;3.17;2.90;;;24.10;99.90;;;;;;6223839;23;20501;-66
2022/10/27 11:37:07;;;;;;;3.53;3.22;;;24.40;99.90;;;;;;6204328;23;20656;-65
2022/10/27 11:39:44;;;;;;;3.95;3.75;;;24.40;99.90;;;;;;6224097;23;20135;-66
2022/10/27 11:42:33;;;;;;;3.45;3.00;;;24.30;99.90;;;;;;6224096;23;20188;-66
2022/10/27 11:45:23;;;;;;;4.55;3.35;;;24.20;99.90;;;;;;6224244;23;20123;-66
2022/10/27 11:48:10;;;;;;;3.78;3.47;;;24.30;99.90;;;;;;6222098;23;20178;-66
2022/10/27 11:51:04;;;;;;;4.90;3.30;;;24.30;99.90;;;;;;6223357;23;20139;-66
2022/10/27 11:53:29;;;;;;;3.47;3.17;;;24.40;99.90;;;;;;6223752;23;20131;-66
2022/10/27 11:56:33;;;;;;;3.67;3.47;;;24.40;99.90;;;;;;6223556;23;20162;-66
2022/10/27 11:59:05;;;;;;;3.60;3.40;;;24.40;99.90;;;;;;6223901;23;20158;-66
2022/10/27 12:01:48;;;;;;;3.72;3.50;;;24.40;99.90;;;;;;6211930;23;20139;-66
2022/10/27 12:04:54;;;;;;;3.47;3.28;;;24.40;99.90;;;;;;6212640;23;20146;-65
2022/10/27 12:07:41;;;;;;;3.80;3.50;;;24.30;99.90;;;;;;6223947;23;20259;-64
2022/10/27 12:10:30;;;;;;;3.78;3.42;;;24.30;99.90;;;;;;6223116;23;20171;-64
2022/10/27 12:13:18;;;;;;;2.83;2.72;;;24.40;99.90;;;;;;6223918;23;20143;-64
2022/10/27 12:15:57;;;;;;;3.80;2.80;;;24.60;99.90;;;;;;6211759;23;20862;-65
2022/10/27 12:18:32;;;;;;;3.30;3.10;;;24.80;99.90;;;;;;6223818;23;20504;-64
2022/10/27 12:21:05;;;;;;;4.72;3.20;;;24.90;99.90;;;;;;6223690;23;20141;-64
2022/10/27 12:23:37;;;;;;;3.85;3.20;;;24.70;99.90;;;;;;6223105;23;20480;-64
2022/10/27 12:26:13;;;;;;;3.60;3.30;;;24.50;99.90;;;;;;6222654;23;20214;-64
2022/10/27 12:28:39;;;;;;;3.45;3.15;;;24.40;99.90;;;;;;6223431;23;20252;-67
2022/10/27 12:31:10;;;;;;;3.88;3.00;;;24.30;99.90;;;;;;6213275;23;20150;-67
2022/10/27 12:33:38;;;;;;;3.53;3.33;;;24.00;99.90;;;;;;6223700;23;20213;-67
2022/10/27 12:36:23;;;;;;;3.17;2.97;;;23.90;99.90;;;;;;6223746;23;20182;-66
2022/10/27 12:39:10;;;;;;;3.50;3.30;;;23.80;99.90;;;;;;6223710;23;20586;-66
2022/10/27 12:41:44;;;;;;;3.00;2.80;;;23.70;99.90;;;;;;6223643;23;20144;-66
2022/10/27 12:44:22;;;;;;;3.33;3.00;;;23.90;99.90;;;;;;6212057;23;20177;-66
2022/10/27 12:47:13;;;;;;;3.40;3.20;;;23.90;99.90;;;;;;6222757;23;20227;-66
2022/10/27 12:50:00;;;;;;;4.50;3.72;;;23.80;99.90;;;;;;6223320;23;20221;-66
2022/10/27 12:52:27;;;;;;;3.22;2.92;;;23.80;99.90;;;;;;6223701;23;20142;-67
2022/10/27 12:55:04;;;;;;;7.35;3.17;;;23.70;99.90;;;;;;6223915;23;20151;-66
2022/10/27 12:57:39;;;;;;;3.35;3.05;;;23.70;99.90;;;;;;6223517;23;20233;-66
2022/10/27 13:00:22;;;;;;;3.83;3.53;;;23.50;99.90;;;;;;6223304;23;20136;-66
2022/10/27 13:03:10;;;;;;;3.28;3.08;;;23.40;99.90;;;;;;6211722;23;20239;-66
2022/10/27 13:06:06;;;;;;;5.70;3.83;;;23.40;99.90;;;;;;6223310;23;20246;-67